MST,Max TemperatureF,Mean TemperatureF,Min TemperatureF,Max Dew PointF,MeanDew PointF,Min DewpointF,Max Humidity, Mean Humidity, Min Humidity, Max Sea Level PressureIn, Mean Sea Level PressureIn, Min Sea Level PressureIn, Max VisibilityMiles, Mean VisibilityMiles, Min VisibilityMiles, Max Wind SpeedMPH, Mean Wind SpeedMPH, Max Gust SpeedMPH,PrecipitationIn, CloudCover, Events, WindDirDegrees
2012-12-1,57,43,29,38,32,27,85,64,43,29.92,29.84,29.75,10,10,10,16,5,21,0.00,0,,255
2012-12-2,65,47,28,33,28,25,85,57,28,29.91,29.71,29.48,10,10,10,26,12,35,0.00,0,,201
2012-12-3,59,40,20,37,25,15,84,54,24,30.19,29.91,29.49,10,10,10,28,9,35,T,2,,297
2012-12-4,53,40,26,22,18,16,69,48,26,30.35,30.21,30.10,10,10,10,20,7,25,0.00,0,,215
2012-12-5,66,48,30,38,30,21,72,50,28,30.09,29.84,29.70,10,10,10,28,9,37,T,2,Rain,250
2012-12-6,49,41,32,31,18,11,52,42,32,30.11,30.00,29.87,10,10,10,29,8,39,T,8,,60
2012-12-7,37,27,16,25,22,15,92,72,52,30.03,29.91,29.80,10,10,10,20,7,25,0.00,4,,309
2012-12-8,46,30,14,30,22,7,92,66,40,30.04,29.81,29.63,10,5,0,24,12,30,T,6,Fog-Snow,277
2012-12-9,14,1,-12,9,1,-14,83,73,63,30.46,30.22,29.95,10,4,0,33,10,44,T,5,Fog-Snow,340
2012-12-10,32,18,3,22,11,-1,92,74,55,30.14,30.01,29.90,10,10,10,21,7,26,0.00,3,,258
2012-12-11,38,26,14,19,16,10,84,66,48,30.04,29.89,29.74,10,10,9,16,9,22,0.01,1,,227
2012-12-12,49,36,23,30,22,16,75,57,39,29.88,29.77,29.68,10,10,9,16,5,21,0.00,0,,233
2012-12-13,47,34,21,27,22,17,84,62,39,30.09,29.97,29.89,10,10,9,26,8,35,0.00,0,,174
2012-12-14,46,38,30,28,24,19,85,63,41,29.87,29.70,29.57,10,10,9,21,4,28,0.00,2,,221
2012-12-15,38,29,19,24,20,15,92,66,40,29.86,29.78,29.62,10,10,10,12,3,16,0.00,4,,331
2012-12-16,44,32,20,25,20,14,92,61,30,29.81,29.74,29.63,10,10,4,21,7,29,T,5,Snow,233
2012-12-17,46,28,9,30,19,8,92,69,45,29.77,29.60,29.44,10,10,10,23,5,33,T,2,Rain,232
2012-12-18,41,33,24,31,18,5,89,57,25,29.87,29.73,29.53,10,10,10,21,8,26,0.00,2,,263
2012-12-19,30,21,12,22,15,5,84,67,49,30.23,30.03,29.86,10,9,2,12,5,16,T,5,Snow,341
2012-12-20,41,25,8,10,6,0,73,48,23,30.30,30.24,30.18,10,10,10,17,7,22,0.00,0,,253
2012-12-21,52,35,17,15,11,7,73,47,21,30.25,30.13,30.00,10,10,8,14,6,17,0.00,0,,248
2012-12-22,43,28,13,18,12,7,84,56,27,30.14,30.06,29.96,10,10,9,16,4,17,0.00,0,,36
2012-12-23,38,21,4,18,9,0,83,65,47,30.15,30.02,29.90,10,10,8,17,5,26,0.00,0,,51
2012-12-24,18,13,7,12,7,1,88,81,74,30.39,30.14,29.96,10,5,1,16,9,20,T,8,Snow,67
2012-12-25,13,7,0,4,0,-4,87,77,67,30.58,30.38,30.21,10,6,1,14,4,17,T,6,Snow,202
2012-12-26,21,5,-12,13,1,-16,87,77,67,30.25,30.08,29.79,10,10,4,18,5,24,T,4,Snow,182
2012-12-27,16,6,-5,10,7,-7,91,82,73,30.16,29.91,29.75,10,5,0,15,5,20,T,8,Fog-Snow,296
2012-12-28,20,2,-17,12,-2,-22,90,79,67,30.25,30.17,29.95,10,10,9,10,3,12,0.00,3,,242
2012-12-29,27,17,7,14,9,4,92,71,50,30.29,30.20,30.06,10,10,10,16,6,20,0.00,0,,244
2012-12-30,24,14,3,13,7,1,91,76,60,30.24,30.12,30.02,10,10,9,18,6,23,0.00,2,,240
2012-12-31,24,15,6,18,14,4,92,85,77,30.24,30.17,30.02,10,10,8,14,3,17,0.00,5,,227